Athens, Illinois
Current Conditions -  °F | °C
As of 12:52 PM on Sunday 23 Nov 2014 (Local Time) from KSPI Reporting Station
Light Rain Light Rain  
Wind Chill: 12°   Ceiling: 6500
Heat Index: 12°   Visibility: 7mi
Dew Point: 10°   Wind: 15mph
Humidity: 86%   Direction: 150°SSE
Pressure: 29.49"   Gusts: NA
Location:  39.96°N, 89.72°W
Report Text: KSPI 231852Z 15013KT 7SM -RA FEW012 BKN065 OVC085 12/10 A2949 RMK AO2 RAE02B09 SLP984 P0001 T01220100
Loading
Personal Weather Stations






























Interactive Weather Map New forecast layout! Learn more

10-Day Weather Forecast

Advertisements
Track Severe Weather on mobile